Arica, Chile
Current Conditions -  °F | °C
As of 9:00 PM on Friday 19 Dec 2014 (Local Time) from SCAR Reporting Station
Clear Clear  
Wind Chill: 66°   Ceiling: Unl
Heat Index: 66°   Visibility: 6mi
Dew Point: 57°   Wind: 6mph
Humidity: 73%   Direction: 190°S
Pressure: 29.94"   Gusts: NA
Location:  18.49°S, 70.3°W
Report Text: SCAR 200000Z 19005KT CAVOK 19/14 Q1014
Loading
Personal Weather Stations






























Interactive Weather Map New forecast layout! Learn more

10-Day Weather Forecast

Advertisements
Track Severe Weather on mobile